Terminal Aerodrome Forecast
Issued by NWS

Home | Current Version | Previous Version | Text Only | Print | Product List | Glossary On
Versions: 1 2 3 4 5 6 7 8 9 10 11 12 13 14 15
000
FTUS44 KEPZ 162300
TAFTCS
TAF
KTCS 162327Z 1700/1724 11007KT P6SM -SHRA SCT008 BKN025 BKN050
      TEMPO 1700/1704 2SM +SHRA BKN008
     FM171200 04004KT 5SM SHRA BKN010 OVC025
     FM171800 06007KT P6SM VCSH SCT015 BKN025 OVC050=

USA.gov is the U.S. government's official web portal to all federal, state and local government web resources and services.